createdAt,value
2022-09-04T00:00:17.792Z,99.90
2022-09-04T00:03:14.253Z,99.90
2022-09-04T00:14:13.594Z,99.90
2022-09-04T00:17:06.171Z,99.90
2022-09-04T00:19:55.868Z,99.90
2022-09-04T00:30:43.298Z,99.90
2022-09-04T00:33:51.495Z,99.90
2022-09-04T00:36:25.073Z,99.90
2022-09-04T00:39:00.774Z,99.90
2022-09-04T00:46:22.593Z,99.90
2022-09-04T00:49:33.675Z,99.90
2022-09-04T00:52:29.578Z,99.90
2022-09-04T00:59:30.717Z,99.90
2022-09-04T01:02:27.549Z,99.90
2022-09-04T01:05:07.513Z,99.90
2022-09-04T01:08:12.247Z,99.90
2022-09-04T01:11:06.886Z,99.90
2022-09-04T01:13:47.217Z,99.90
2022-09-04T01:20:56.461Z,99.90
2022-09-04T01:32:10.048Z,99.90
2022-09-04T01:35:08.973Z,99.90
2022-09-04T01:38:09.794Z,99.90
2022-09-04T01:44:40.312Z,99.90
2022-09-04T01:52:17.348Z,99.90
2022-09-04T01:55:03.937Z,99.90
2022-09-04T01:58:11.615Z,99.90
2022-09-04T02:05:14.115Z,99.90
2022-09-04T02:16:31.418Z,99.90
2022-09-04T02:19:29.443Z,99.90
2022-09-04T02:26:20.433Z,99.90
2022-09-04T02:33:25.971Z,99.90
2022-09-04T02:40:16.718Z,99.90
2022-09-04T02:43:32.896Z,99.90
2022-09-04T02:54:33.043Z,99.90
2022-09-04T02:57:31.039Z,99.90
2022-09-04T03:04:13.926Z,99.90
2022-09-04T03:06:49.076Z,99.90
2022-09-04T03:09:27.472Z,99.90
2022-09-04T03:12:21.809Z,99.90
2022-09-04T03:15:09.371Z,99.90
2022-09-04T03:17:55.874Z,99.90
2022-09-04T03:25:01.032Z,99.90
2022-09-04T03:27:32.624Z,99.90
2022-09-04T03:30:03.275Z,99.90
2022-09-04T03:32:43.717Z,99.90
2022-09-04T03:35:35.750Z,99.90
2022-09-04T03:38:17.878Z,99.90
2022-09-04T03:40:53.887Z,99.90
2022-09-04T03:44:23.979Z,99.90
2022-09-04T03:47:01.734Z,99.90
2022-09-04T03:49:57.449Z,99.90
2022-09-04T03:52:42.444Z,99.90
2022-09-04T04:00:04.140Z,99.90
2022-09-04T04:03:20.897Z,99.90
2022-09-04T04:06:11.655Z,99.90
2022-09-04T04:13:26.204Z,99.90
2022-09-04T04:16:24.820Z,99.90
2022-09-04T04:19:12.672Z,99.90
2022-09-04T04:26:29.255Z,99.90
2022-09-04T04:29:53.915Z,99.90
2022-09-04T04:33:02.671Z,99.90
2022-09-04T04:39:52.963Z,99.90
2022-09-04T04:42:29.030Z,99.90
2022-09-04T04:45:29.820Z,99.90
2022-09-04T04:52:19.230Z,99.90
2022-09-04T04:55:15.050Z,99.90
2022-09-04T04:58:42.573Z,99.90
2022-09-04T05:01:12.957Z,99.90
2022-09-04T05:04:01.944Z,99.90
2022-09-04T05:06:51.008Z,99.90
2022-09-04T05:09:23.857Z,99.90
2022-09-04T05:11:53.870Z,99.90
2022-09-04T05:18:34.576Z,99.90
2022-09-04T05:21:31.039Z,99.90
2022-09-04T05:24:22.098Z,99.90
2022-09-04T05:26:59.725Z,99.90
2022-09-04T05:33:51.535Z,99.90
2022-09-04T05:36:29.981Z,99.90
2022-09-04T05:39:28.779Z,99.90
2022-09-04T05:42:06.742Z,99.90
2022-09-04T05:45:16.192Z,99.90
2022-09-04T05:48:04.529Z,99.90
2022-09-04T05:50:31.661Z,99.90
2022-09-04T05:53:26.564Z,99.90
2022-09-04T05:56:23.222Z,99.90
2022-09-04T05:59:16.105Z,99.90
2022-09-04T06:02:26.454Z,99.90
2022-09-04T06:05:24.582Z,99.90
2022-09-04T06:08:26.456Z,99.90
2022-09-04T06:11:32.166Z,99.90
2022-09-04T06:14:35.512Z,99.90
2022-09-04T06:17:36.241Z,99.90
2022-09-04T06:20:33.709Z,99.90
2022-09-04T06:23:37.753Z,99.90
2022-09-04T06:27:00.362Z,99.90
2022-09-04T06:30:11.972Z,99.90
2022-09-04T06:33:12.127Z,99.90
2022-09-04T06:36:18.310Z,99.90
2022-09-04T06:39:20.879Z,99.90
2022-09-04T06:42:01.051Z,99.90
2022-09-04T06:45:05.149Z,99.90
2022-09-04T06:48:09.767Z,99.90
2022-09-04T06:51:00.219Z,99.90
2022-09-04T06:53:50.449Z,99.90
2022-09-04T06:57:07.983Z,99.90
2022-09-04T07:00:20.416Z,99.90
2022-09-04T07:03:18.067Z,99.90
2022-09-04T07:06:03.507Z,99.90
2022-09-04T07:08:42.705Z,99.90
2022-09-04T07:11:54.578Z,99.90
2022-09-04T07:14:42.439Z,99.90
2022-09-04T07:17:46.800Z,99.90
2022-09-04T07:20:41.298Z,99.90
2022-09-04T07:23:23.608Z,99.90
2022-09-04T07:26:15.667Z,99.90
2022-09-04T07:29:26.248Z,99.90
2022-09-04T07:32:11.800Z,99.90
2022-09-04T07:35:13.220Z,99.90
2022-09-04T07:38:03.408Z,99.90
2022-09-04T07:40:42.385Z,99.90
2022-09-04T07:43:50.245Z,99.90
2022-09-04T07:46:55.211Z,99.90
2022-09-04T07:49:37.318Z,99.90
2022-09-04T07:56:32.104Z,99.90
2022-09-04T07:59:23.612Z,99.90
2022-09-04T08:06:21.940Z,99.90
2022-09-04T08:09:25.295Z,99.90
2022-09-04T08:12:26.103Z,99.90
2022-09-04T08:15:42.259Z,99.90
2022-09-04T08:18:25.238Z,99.90
2022-09-04T08:21:15.035Z,99.90
2022-09-04T08:23:57.966Z,99.90
2022-09-04T08:26:58.996Z,99.90
2022-09-04T08:29:53.636Z,99.90
2022-09-04T08:32:48.372Z,99.90
2022-09-04T08:35:37.517Z,99.90
2022-09-04T08:38:35.667Z,99.90
2022-09-04T08:41:51.612Z,99.90
2022-09-04T08:44:49.386Z,99.90
2022-09-04T08:48:00.286Z,99.90
2022-09-04T08:51:38.618Z,99.90
2022-09-04T08:54:23.998Z,99.90
2022-09-04T08:57:48.444Z,99.90
2022-09-04T09:01:03.517Z,99.90
2022-09-04T09:04:01.935Z,99.90
2022-09-04T09:06:50.533Z,99.90
2022-09-04T09:10:02.952Z,99.90
2022-09-04T09:13:24.679Z,99.90
2022-09-04T09:16:13.661Z,99.90
2022-09-04T09:19:02.818Z,99.90
2022-09-04T09:22:02.684Z,99.90
2022-09-04T09:24:52.376Z,99.90
2022-09-04T09:28:09.027Z,99.90
2022-09-04T09:31:25.529Z,99.90
2022-09-04T09:34:54.470Z,99.90
2022-09-04T09:37:48.005Z,99.90
2022-09-04T09:40:48.895Z,99.90
2022-09-04T09:44:12.282Z,99.90
2022-09-04T09:46:58.400Z,99.90
2022-09-04T09:49:50.184Z,99.90
2022-09-04T09:53:18.766Z,99.90
2022-09-04T09:56:24.172Z,99.90
2022-09-04T09:59:31.149Z,99.90
2022-09-04T10:02:35.259Z,99.90
2022-09-04T10:05:46.081Z,99.90
2022-09-04T10:08:58.267Z,99.90
2022-09-04T10:12:15.138Z,99.90
2022-09-04T10:14:51.299Z,99.90
2022-09-04T10:17:54.741Z,99.90
2022-09-04T10:21:18.262Z,99.90
2022-09-04T10:24:17.382Z,99.90
2022-09-04T10:27:43.961Z,99.90
2022-09-04T10:34:40.155Z,99.90
2022-09-04T10:38:02.388Z,99.90
2022-09-04T10:41:00.167Z,99.90
2022-09-04T10:43:53.135Z,99.90
2022-09-04T10:55:01.297Z,99.90
2022-09-04T11:03:41.219Z,99.90
2022-09-04T11:06:20.097Z,99.90
2022-09-04T11:09:42.618Z,99.90
2022-09-04T11:12:47.842Z,99.90
2022-09-04T11:15:39.728Z,99.90
2022-09-04T11:18:28.580Z,99.90
2022-09-04T11:25:37.613Z,99.90
2022-09-04T11:28:42.282Z,99.90
2022-09-04T11:31:21.353Z,99.90
2022-09-04T11:34:34.199Z,99.90
2022-09-04T11:38:07.575Z,99.90
2022-09-04T11:40:49.590Z,99.90
2022-09-04T11:43:31.682Z,99.90
2022-09-04T11:46:35.895Z,99.90
2022-09-04T11:49:51.071Z,99.90
2022-09-04T11:53:01.103Z,99.90
2022-09-04T12:00:24.844Z,99.90
2022-09-04T12:03:49.236Z,99.90
2022-09-04T12:06:37.908Z,99.90
2022-09-04T12:09:35.700Z,99.90
2022-09-04T12:12:53.546Z,99.90
2022-09-04T12:16:08.642Z,99.90
2022-09-04T12:19:14.175Z,99.90
2022-09-04T12:22:18.226Z,99.90
2022-09-04T12:29:52.913Z,99.90
2022-09-04T12:33:23.910Z,96.60
2022-09-04T12:40:47.532Z,90.60
2022-09-04T12:43:37.514Z,90.00
2022-09-04T12:46:33.804Z,90.90
2022-09-04T12:53:28.201Z,91.40
2022-09-04T12:56:11.624Z,92.80
2022-09-04T12:59:32.239Z,91.90
2022-09-04T13:02:39.633Z,90.10
2022-09-04T13:41:52.589Z,77.70
2022-09-04T13:44:53.825Z,82.30
2022-09-04T13:47:32.216Z,87.90
2022-09-04T13:54:23.527Z,89.80
2022-09-04T14:01:00.298Z,92.40
2022-09-04T14:03:41.504Z,93.60
2022-09-04T14:15:03.499Z,93.20
2022-09-04T14:18:02.962Z,93.10
2022-09-04T14:20:52.195Z,92.40
2022-09-04T14:23:54.545Z,92.50
2022-09-04T14:26:37.241Z,94.20
2022-09-04T14:29:17.030Z,93.50
2022-09-04T14:41:09.757Z,93.40
2022-09-04T14:47:49.321Z,92.10
2022-09-04T14:54:37.585Z,92.60
2022-09-04T14:57:37.232Z,92.20
2022-09-04T15:00:09.714Z,93.40
2022-09-04T15:31:40.640Z,93.00
2022-09-04T15:34:24.453Z,94.60
2022-09-04T15:45:14.173Z,92.60
2022-09-04T15:47:58.294Z,94.20
2022-09-04T15:50:32.612Z,94.80
2022-09-04T16:01:34.668Z,94.50
2022-09-04T16:04:37.650Z,93.40
2022-09-04T16:11:30.628Z,93.60
2022-09-04T16:14:30.810Z,93.40
2022-09-04T16:51:57.666Z,99.90
2022-09-04T16:54:43.579Z,99.90
2022-09-04T18:50:30.191Z,99.90
2022-09-04T18:50:53.075Z,99.90
2022-09-04T18:52:10.958Z,99.90
2022-09-04T18:54:56.754Z,99.90
2022-09-04T18:57:46.784Z,99.90
2022-09-04T19:00:37.696Z,99.90
2022-09-04T19:03:30.105Z,99.90
2022-09-04T19:06:09.772Z,99.90
2022-09-04T19:08:51.754Z,99.90
2022-09-04T19:11:31.894Z,99.90
2022-09-04T19:14:15.644Z,99.90
2022-09-04T19:17:34.864Z,99.90
2022-09-04T19:20:15.724Z,99.90
2022-09-04T19:22:54.733Z,99.90
2022-09-04T19:25:47.519Z,99.90
2022-09-04T19:28:47.029Z,99.90
2022-09-04T19:31:40.384Z,99.90
2022-09-04T19:34:37.288Z,99.90
2022-09-04T19:38:35.748Z,99.90
2022-09-04T19:45:53.568Z,99.90
2022-09-04T19:46:15.955Z,99.90
2022-09-04T19:47:28.768Z,99.90
2022-09-04T19:53:32.455Z,99.90
2022-09-04T19:54:02.241Z,99.90
2022-09-04T19:57:32.974Z,99.90
2022-09-04T19:59:56.709Z,99.90
2022-09-04T20:02:52.246Z,99.90
2022-09-04T20:05:27.399Z,99.90
2022-09-04T20:08:13.381Z,99.90
2022-09-04T20:11:01.592Z,99.90
2022-09-04T20:13:53.244Z,99.90
2022-09-04T20:16:32.291Z,99.90
2022-09-04T20:19:35.015Z,99.90
2022-09-04T20:22:09.769Z,99.90
2022-09-04T20:25:02.179Z,99.90
2022-09-04T20:27:48.524Z,99.90
2022-09-04T20:30:24.914Z,99.90
2022-09-04T20:33:17.846Z,99.90
2022-09-04T20:36:03.066Z,99.90
2022-09-04T20:38:56.677Z,99.90
2022-09-04T20:41:54.594Z,99.90
2022-09-04T20:44:45.857Z,99.90
2022-09-04T20:52:44.476Z,99.90
2022-09-04T20:52:58.850Z,99.90
2022-09-04T20:54:00.833Z,99.90
2022-09-04T20:59:23.663Z,99.90
2022-09-04T21:03:14.705Z,99.90
2022-09-04T21:03:22.274Z,99.90
2022-09-04T21:06:18.883Z,99.90
2022-09-04T21:09:05.975Z,99.90
2022-09-04T21:11:51.936Z,99.90
2022-09-04T21:14:45.655Z,99.90
2022-09-04T21:17:57.261Z,99.90
2022-09-04T21:20:30.242Z,99.90
2022-09-04T21:23:30.854Z,99.90
2022-09-04T21:26:04.041Z,99.90
2022-09-04T21:29:11.343Z,99.90
2022-09-04T21:32:28.243Z,99.90
2022-09-04T21:35:13.518Z,99.90
2022-09-04T21:38:16.942Z,99.90
2022-09-04T21:41:05.098Z,99.90
2022-09-04T21:44:06.873Z,99.90
2022-09-04T21:47:01.784Z,99.90
2022-09-04T21:50:09.588Z,99.90
2022-09-04T21:52:55.846Z,99.90
2022-09-04T22:02:25.441Z,99.90
2022-09-04T22:02:36.668Z,99.90
2022-09-04T22:02:54.489Z,99.90
2022-09-04T22:05:48.495Z,99.90
2022-09-04T22:13:33.660Z,99.90
2022-09-04T22:13:42.966Z,99.90
2022-09-04T22:15:13.122Z,99.90
2022-09-04T22:18:04.435Z,99.90
2022-09-04T22:21:31.629Z,99.90
2022-09-04T22:24:28.981Z,99.90
2022-09-04T22:28:08.293Z,99.90
2022-09-04T22:31:03.813Z,99.90
2022-09-04T22:34:16.843Z,99.90
2022-09-04T22:37:29.026Z,99.90
2022-09-04T22:44:53.169Z,99.90
2022-09-04T22:51:48.477Z,99.90
2022-09-04T22:54:42.396Z,99.90
2022-09-04T22:58:15.809Z,99.90
2022-09-04T23:01:30.242Z,99.90
2022-09-04T23:04:18.508Z,99.90
2022-09-04T23:13:50.842Z,99.90
2022-09-04T23:21:10.537Z,99.90
2022-09-04T23:26:43.578Z,99.90
2022-09-04T23:26:49.805Z,99.90
2022-09-04T23:28:28.761Z,99.90
2022-09-04T23:32:07.034Z,99.90
2022-09-04T23:38:55.192Z,99.90
2022-09-04T23:49:31.137Z,99.90
2022-09-04T23:52:13.736Z,99.90
2022-09-04T23:55:39.954Z,99.90
2022-09-04T23:58:49.399Z,99.90
